sensor_id;sensor_type;location;lat;lon;timestamp;pressure;altitude;pressure_sealevel;temperature;humidity
74633;BME280;63139;52.018;8.552;2023-04-10T00:00:49;101271.38;;;2.78;83.32
74633;BME280;63139;52.018;8.552;2023-04-10T00:03:22;101270.53;;;2.77;83.06
74633;BME280;63139;52.018;8.552;2023-04-10T00:05:51;101270.63;;;2.76;82.73
74633;BME280;63139;52.018;8.552;2023-04-10T00:08:21;101263.72;;;2.74;83.11
74633;BME280;63139;52.018;8.552;2023-04-10T00:10:50;101261.09;;;2.74;82.87
74633;BME280;63139;52.018;8.552;2023-04-10T00:13:19;101259.31;;;2.75;83.00
74633;BME280;63139;52.018;8.552;2023-04-10T00:15:47;101255.06;;;2.74;83.20
74633;BME280;63139;52.018;8.552;2023-04-10T00:18:15;101253.38;;;2.73;83.09
74633;BME280;63139;52.018;8.552;2023-04-10T00:20:42;101248.25;;;2.71;83.00
74633;BME280;63139;52.018;8.552;2023-04-10T00:23:10;101255.25;;;2.71;82.99
74633;BME280;63139;52.018;8.552;2023-04-10T00:25:38;101249.28;;;2.69;83.21
74633;BME280;63139;52.018;8.552;2023-04-10T00:28:07;101244.13;;;2.67;83.01
74633;BME280;63139;52.018;8.552;2023-04-10T00:30:35;101244.25;;;2.66;83.12
74633;BME280;63139;52.018;8.552;2023-04-10T00:33:03;101238.38;;;2.62;83.42
74633;BME280;63139;52.018;8.552;2023-04-10T00:35:31;101239.31;;;2.61;82.83
74633;BME280;63139;52.018;8.552;2023-04-10T00:37:59;101232.53;;;2.59;84.01
74633;BME280;63139;52.018;8.552;2023-04-10T00:40:27;101230.94;;;2.56;83.85
74633;BME280;63139;52.018;8.552;2023-04-10T00:42:56;101223.28;;;2.53;83.70
74633;BME280;63139;52.018;8.552;2023-04-10T00:45:25;101222.56;;;2.51;83.83
74633;BME280;63139;52.018;8.552;2023-04-10T00:47:54;101218.34;;;2.49;83.89
74633;BME280;63139;52.018;8.552;2023-04-10T00:50:22;101216.69;;;2.48;84.07
74633;BME280;63139;52.018;8.552;2023-04-10T00:52:51;101217.69;;;2.45;83.78
74633;BME280;63139;52.018;8.552;2023-04-10T00:55:19;101217.06;;;2.42;84.07
74633;BME280;63139;52.018;8.552;2023-04-10T00:57:47;101218.94;;;2.40;84.42
74633;BME280;63139;52.018;8.552;2023-04-10T01:00:16;101216.53;;;2.37;84.53
74633;BME280;63139;52.018;8.552;2023-04-10T01:02:48;101216.63;;;2.35;84.19
74633;BME280;63139;52.018;8.552;2023-04-10T01:05:16;101215.78;;;2.34;84.71
74633;BME280;63139;52.018;8.552;2023-04-10T01:07:53;101214.28;;;2.30;84.72
74633;BME280;63139;52.018;8.552;2023-04-10T01:10:28;101210.84;;;2.30;84.99
74633;BME280;63139;52.018;8.552;2023-04-10T01:13:06;101211.88;;;2.27;84.51
74633;BME280;63139;52.018;8.552;2023-04-10T01:15:41;101208.53;;;2.25;84.74
74633;BME280;63139;52.018;8.552;2023-04-10T01:18:16;101203.47;;;2.22;84.93
74633;BME280;63139;52.018;8.552;2023-04-10T01:20:46;101206.22;;;2.21;84.80
74633;BME280;63139;52.018;8.552;2023-04-10T01:23:46;101204.63;;;2.18;84.91
74633;BME280;63139;52.018;8.552;2023-04-10T01:26:38;101201.25;;;2.16;85.45
74633;BME280;63139;52.018;8.552;2023-04-10T01:29:11;101203.88;;;2.16;85.62
74633;BME280;63139;52.018;8.552;2023-04-10T01:31:45;101210.03;;;2.15;85.85
74633;BME280;63139;52.018;8.552;2023-04-10T01:34:20;101209.22;;;2.15;86.30
74633;BME280;63139;52.018;8.552;2023-04-10T01:36:54;101207.41;;;2.15;86.35
74633;BME280;63139;52.018;8.552;2023-04-10T01:39:22;101207.41;;;2.15;85.99
74633;BME280;63139;52.018;8.552;2023-04-10T01:41:55;101208.25;;;2.16;85.80
74633;BME280;63139;52.018;8.552;2023-04-10T01:44:40;101201.25;;;2.16;86.10
74633;BME280;63139;52.018;8.552;2023-04-10T01:47:08;101202.09;;;2.17;86.09
74633;BME280;63139;52.018;8.552;2023-04-10T01:49:37;101201.19;;;2.18;86.15
74633;BME280;63139;52.018;8.552;2023-04-10T01:52:10;101203.69;;;2.19;86.29
74633;BME280;63139;52.018;8.552;2023-04-10T01:54:39;101200.25;;;2.19;86.41
74633;BME280;63139;52.018;8.552;2023-04-10T01:57:07;101193.25;;;2.19;86.17
74633;BME280;63139;52.018;8.552;2023-04-10T01:59:44;101194.09;;;2.20;86.04
74633;BME280;63139;52.018;8.552;2023-04-10T02:02:12;101193.03;;;2.22;86.32
74633;BME280;63139;52.018;8.552;2023-04-10T02:04:40;101181.78;;;2.22;86.26
74633;BME280;63139;52.018;8.552;2023-04-10T02:07:12;101179.97;;;2.22;86.76
74633;BME280;63139;52.018;8.552;2023-04-10T02:09:47;101178.94;;;2.25;87.04
74633;BME280;63139;52.018;8.552;2023-04-10T02:12:21;101180.63;;;2.26;86.76
74633;BME280;63139;52.018;8.552;2023-04-10T02:14:52;101174.38;;;2.28;87.05
74633;BME280;63139;52.018;8.552;2023-04-10T02:17:25;101168.09;;;2.31;86.86
74633;BME280;63139;52.018;8.552;2023-04-10T02:20:02;101171.47;;;2.33;87.00
74633;BME280;63139;52.018;8.552;2023-04-10T02:22:32;101160.94;;;2.34;86.71
74633;BME280;63139;52.018;8.552;2023-04-10T02:25:03;101169.50;;;2.37;87.81
74633;BME280;63139;52.018;8.552;2023-04-10T02:27:33;101156.44;;;2.37;86.94
74633;BME280;63139;52.018;8.552;2023-04-10T02:30:04;101163.13;;;2.41;87.10
74633;BME280;63139;52.018;8.552;2023-04-10T02:32:34;101152.69;;;2.41;87.44
74633;BME280;63139;52.018;8.552;2023-04-10T02:35:02;101157.91;;;2.41;86.88
74633;BME280;63139;52.018;8.552;2023-04-10T02:37:30;101148.31;;;2.41;86.75
74633;BME280;63139;52.018;8.552;2023-04-10T02:40:00;101147.47;;;2.41;86.63
74633;BME280;63139;52.018;8.552;2023-04-10T02:42:36;101144.75;;;2.42;86.68
74633;BME280;63139;52.018;8.552;2023-04-10T02:45:07;101149.25;;;2.40;87.00
74633;BME280;63139;52.018;8.552;2023-04-10T02:47:38;101150.91;;;2.41;87.09
74633;BME280;63139;52.018;8.552;2023-04-10T02:50:07;101162.13;;;2.43;86.91
74633;BME280;63139;52.018;8.552;2023-04-10T02:52:37;101158.66;;;2.43;86.90
74633;BME280;63139;52.018;8.552;2023-04-10T02:55:06;101158.66;;;2.43;86.31
74633;BME280;63139;52.018;8.552;2023-04-10T02:57:36;101153.53;;;2.41;86.30
74633;BME280;63139;52.018;8.552;2023-04-10T03:00:06;101148.31;;;2.41;86.03
74633;BME280;63139;52.018;8.552;2023-04-10T03:02:54;101149.97;;;2.42;86.30
74633;BME280;63139;52.018;8.552;2023-04-10T03:05:25;101146.44;;;2.43;86.40
74633;BME280;63139;52.018;8.552;2023-04-10T03:07:54;101149.88;;;2.44;86.09
74633;BME280;63139;52.018;8.552;2023-04-10T03:10:22;101144.53;;;2.45;86.48
74633;BME280;63139;52.018;8.552;2023-04-10T03:12:50;101148.75;;;2.48;86.57
74633;BME280;63139;52.018;8.552;2023-04-10T03:15:19;101146.03;;;2.49;86.42
74633;BME280;63139;52.018;8.552;2023-04-10T03:17:47;101145.81;;;2.52;86.16
74633;BME280;63139;52.018;8.552;2023-04-10T03:20:15;101145.72;;;2.54;86.23
74633;BME280;63139;52.018;8.552;2023-04-10T03:22:43;101145.53;;;2.57;85.94
74633;BME280;63139;52.018;8.552;2023-04-10T03:25:10;101135.69;;;2.60;86.29
74633;BME280;63139;52.018;8.552;2023-04-10T03:27:38;101133.53;;;2.67;86.51
74633;BME280;63139;52.018;8.552;2023-04-10T03:30:07;101131.03;;;2.78;86.90
74633;BME280;63139;52.018;8.552;2023-04-10T03:32:40;101129.69;;;2.85;86.40
74633;BME280;63139;52.018;8.552;2023-04-10T03:35:09;101122.19;;;2.93;86.15
74633;BME280;63139;52.018;8.552;2023-04-10T03:37:38;101120.50;;;3.05;86.19
74633;BME280;63139;52.018;8.552;2023-04-10T03:40:08;101115.06;;;3.21;86.18
74633;BME280;63139;52.018;8.552;2023-04-10T03:42:36;101109.72;;;3.35;85.82
74633;BME280;63139;52.018;8.552;2023-04-10T03:45:05;101105.09;;;3.51;85.23
74633;BME280;63139;52.018;8.552;2023-04-10T03:47:33;101107.97;;;3.72;84.97
74633;BME280;63139;52.018;8.552;2023-04-10T03:50:06;101111.28;;;3.86;84.20
74633;BME280;63139;52.018;8.552;2023-04-10T03:52:43;101109.34;;;4.01;83.57
74633;BME280;63139;52.018;8.552;2023-04-10T03:55:15;101105.13;;;4.11;83.50
74633;BME280;63139;52.018;8.552;2023-04-10T03:57:45;101106.00;;;4.23;82.54
74633;BME280;63139;52.018;8.552;2023-04-10T04:00:13;101101.88;;;4.32;82.09
74633;BME280;63139;52.018;8.552;2023-04-10T04:02:47;101110.84;;;4.40;81.89
74633;BME280;63139;52.018;8.552;2023-04-10T04:05:41;101106.50;;;4.52;81.16
74633;BME280;63139;52.018;8.552;2023-04-10T04:08:26;101108.31;;;4.62;80.49
74633;BME280;63139;52.018;8.552;2023-04-10T04:11:14;101102.16;;;4.75;79.60
74633;BME280;63139;52.018;8.552;2023-04-10T04:14:03;101091.47;;;4.89;79.24
74633;BME280;63139;52.018;8.552;2023-04-10T04:16:42;101100.06;;;5.02;78.63
74633;BME280;63139;52.018;8.552;2023-04-10T04:19:22;101089.84;;;5.10;78.26
74633;BME280;63139;52.018;8.552;2023-04-10T04:22:21;101100.31;;;5.21;77.42
74633;BME280;63139;52.018;8.552;2023-04-10T04:25:11;101095.44;;;5.28;77.40
74633;BME280;63139;52.018;8.552;2023-04-10T04:28:14;101096.50;;;5.36;76.93
74633;BME280;63139;52.018;8.552;2023-04-10T04:30:51;101100.09;;;5.46;75.07
74633;BME280;63139;52.018;8.552;2023-04-10T04:33:39;101096.75;;;5.56;75.58
74633;BME280;63139;52.018;8.552;2023-04-10T04:36:25;101098.75;;;5.63;74.82
74633;BME280;63139;52.018;8.552;2023-04-10T04:38:57;101102.59;;;5.70;74.65
74633;BME280;63139;52.018;8.552;2023-04-10T04:41:31;101106.41;;;5.77;73.82
74633;BME280;63139;52.018;8.552;2023-04-10T04:44:08;101110.34;;;5.83;73.88
74633;BME280;63139;52.018;8.552;2023-04-10T04:46:59;101112.28;;;5.92;73.40
74633;BME280;63139;52.018;8.552;2023-04-10T04:49:50;101103.03;;;5.98;73.36
74633;BME280;63139;52.018;8.552;2023-04-10T04:52:25;101112.34;;;6.02;73.26
74633;BME280;63139;52.018;8.552;2023-04-10T04:55:03;101114.00;;;6.03;72.87
74633;BME280;63139;52.018;8.552;2023-04-10T04:57:51;101104.94;;;6.07;72.85
74633;BME280;63139;52.018;8.552;2023-04-10T05:00:27;101108.97;;;6.11;72.51
74633;BME280;63139;52.018;8.552;2023-04-10T05:03:04;101109.44;;;6.16;72.17
74633;BME280;63139;52.018;8.552;2023-04-10T05:05:55;101113.38;;;6.21;71.99
74633;BME280;63139;52.018;8.552;2023-04-10T05:08:41;101113.59;;;6.30;71.36
74633;BME280;63139;52.018;8.552;2023-04-10T05:11:25;101113.66;;;6.39;71.56
74633;BME280;63139;52.018;8.552;2023-04-10T05:14:19;101113.75;;;6.49;70.96
74633;BME280;63139;52.018;8.552;2023-04-10T05:17:14;101113.84;;;6.58;70.64
74633;BME280;63139;52.018;8.552;2023-04-10T05:19:55;101111.25;;;6.68;70.48
74633;BME280;63139;52.018;8.552;2023-04-10T05:22:41;101109.31;;;6.81;69.49
74633;BME280;63139;52.018;8.552;2023-04-10T05:25:18;101110.66;;;6.96;69.34
74633;BME280;63139;52.018;8.552;2023-04-10T05:28:00;101108.22;;;7.14;68.70
74633;BME280;63139;52.018;8.552;2023-04-10T05:30:46;101115.78;;;7.28;68.71
74633;BME280;63139;52.018;8.552;2023-04-10T05:33:45;101106.31;;;7.47;68.64
74633;BME280;63139;52.018;8.552;2023-04-10T05:36:23;101114.00;;;7.59;67.47
74633;BME280;63139;52.018;8.552;2023-04-10T05:38:57;101109.59;;;7.69;67.18
74633;BME280;63139;52.018;8.552;2023-04-10T05:41:44;101105.03;;;7.81;67.05
74633;BME280;63139;52.018;8.552;2023-04-10T05:44:22;101105.63;;;7.94;66.38
74633;BME280;63139;52.018;8.552;2023-04-10T05:47:01;101102.34;;;8.11;64.16
74633;BME280;63139;52.018;8.552;2023-04-10T05:49:38;101099.88;;;8.29;65.43
74633;BME280;63139;52.018;8.552;2023-04-10T05:52:24;101092.94;;;8.47;64.47
74633;BME280;63139;52.018;8.552;2023-04-10T05:55:10;101096.81;;;8.72;63.73
74633;BME280;63139;52.018;8.552;2023-04-10T05:58:10;101096.50;;;8.94;63.33
74633;BME280;63139;52.018;8.552;2023-04-10T06:01:18;101092.38;;;9.19;63.16
74633;BME280;63139;52.018;8.552;2023-04-10T06:03:54;101088.41;;;9.43;61.54
74633;BME280;63139;52.018;8.552;2023-04-10T06:06:22;101090.81;;;9.63;60.05
74633;BME280;63139;52.018;8.552;2023-04-10T06:08:51;101089.44;;;9.87;59.73
74633;BME280;63139;52.018;8.552;2023-04-10T06:11:19;101090.81;;;10.08;59.78
74633;BME280;63139;52.018;8.552;2023-04-10T06:13:51;101089.59;;;10.30;59.54
74633;BME280;63139;52.018;8.552;2023-04-10T06:16:26;101083.63;;;10.46;58.91
74633;BME280;63139;52.018;8.552;2023-04-10T06:18:54;101074.47;;;10.58;58.58
74633;BME280;63139;52.018;8.552;2023-04-10T06:21:22;101072.53;;;10.68;58.00
74633;BME280;63139;52.018;8.552;2023-04-10T06:23:50;101066.66;;;10.74;58.29
74633;BME280;63139;52.018;8.552;2023-04-10T06:26:18;101072.16;;;10.81;57.73
74633;BME280;63139;52.018;8.552;2023-04-10T06:28:46;101058.44;;;10.85;57.26
74633;BME280;63139;52.018;8.552;2023-04-10T06:31:14;101054.81;;;10.86;56.45
74633;BME280;63139;52.018;8.552;2023-04-10T06:33:44;101055.31;;;10.90;56.45
74633;BME280;63139;52.018;8.552;2023-04-10T06:36:12;101059.47;;;10.93;56.86
74633;BME280;63139;52.018;8.552;2023-04-10T06:38:46;101063.66;;;10.95;57.18
74633;BME280;63139;52.018;8.552;2023-04-10T06:41:14;101061.97;;;10.94;56.10
74633;BME280;63139;52.018;8.552;2023-04-10T06:43:41;101059.31;;;10.94;56.40
74633;BME280;63139;52.018;8.552;2023-04-10T06:46:09;101060.84;;;10.97;57.28
74633;BME280;63139;52.018;8.552;2023-04-10T06:48:37;101059.31;;;10.94;56.84
74633;BME280;63139;52.018;8.552;2023-04-10T06:51:06;101048.72;;;10.94;56.55
74633;BME280;63139;52.018;8.552;2023-04-10T06:53:34;101047.91;;;10.94;56.62
74633;BME280;63139;52.018;8.552;2023-04-10T06:56:02;101052.16;;;10.86;55.50
74633;BME280;63139;52.018;8.552;2023-04-10T06:58:30;101054.66;;;10.88;56.45
74633;BME280;63139;52.018;8.552;2023-04-10T07:00:58;101044.22;;;10.86;56.41
74633;BME280;63139;52.018;8.552;2023-04-10T07:03:30;101057.31;;;10.88;56.61
74633;BME280;63139;52.018;8.552;2023-04-10T07:05:59;101057.31;;;10.88;56.48
74633;BME280;63139;52.018;8.552;2023-04-10T07:08:28;101057.97;;;10.90;56.45
74633;BME280;63139;52.018;8.552;2023-04-10T07:10:56;101059.63;;;10.91;56.54
74633;BME280;63139;52.018;8.552;2023-04-10T07:13:24;101050.84;;;10.90;56.73
74633;BME280;63139;52.018;8.552;2023-04-10T07:15:52;101055.00;;;10.93;56.39
74633;BME280;63139;52.018;8.552;2023-04-10T07:18:20;101055.69;;;10.95;56.49
74633;BME280;63139;52.018;8.552;2023-04-10T07:20:50;101048.09;;;11.00;55.52
74633;BME280;63139;52.018;8.552;2023-04-10T07:23:17;101044.31;;;11.03;55.37
74633;BME280;63139;52.018;8.552;2023-04-10T07:25:47;101045.66;;;11.07;56.26
74633;BME280;63139;52.018;8.552;2023-04-10T07:28:15;101037.41;;;11.10;55.52
74633;BME280;63139;52.018;8.552;2023-04-10T07:30:42;101036.91;;;11.14;55.23
74633;BME280;63139;52.018;8.552;2023-04-10T07:33:10;101032.78;;;11.20;54.51
74633;BME280;63139;52.018;8.552;2023-04-10T07:35:38;101029.53;;;11.26;55.08
74633;BME280;63139;52.018;8.552;2023-04-10T07:38:06;101036.69;;;11.34;55.28
74633;BME280;63139;52.018;8.552;2023-04-10T07:40:34;101043.00;;;11.41;55.76
74633;BME280;63139;52.018;8.552;2023-04-10T07:43:03;101042.38;;;11.47;55.30
74633;BME280;63139;52.018;8.552;2023-04-10T07:45:31;101034.75;;;11.52;55.53
74633;BME280;63139;52.018;8.552;2023-04-10T07:47:59;101036.75;;;11.58;55.29
74633;BME280;63139;52.018;8.552;2023-04-10T07:50:28;101029.97;;;11.63;54.46
74633;BME280;63139;52.018;8.552;2023-04-10T07:52:56;101027.19;;;11.73;53.95
74633;BME280;63139;52.018;8.552;2023-04-10T07:55:29;101013.00;;;11.82;53.58
74633;BME280;63139;52.018;8.552;2023-04-10T07:57:56;101009.69;;;11.88;53.23
74633;BME280;63139;52.018;8.552;2023-04-10T08:00:25;101012.50;;;11.95;52.45
74633;BME280;63139;52.018;8.552;2023-04-10T08:02:53;101009.72;;;12.04;52.92
74633;BME280;63139;52.018;8.552;2023-04-10T08:05:21;101000.25;;;12.10;52.69
74633;BME280;63139;52.018;8.552;2023-04-10T08:07:49;100992.44;;;12.17;51.08
74633;BME280;63139;52.018;8.552;2023-04-10T08:10:17;100986.31;;;12.24;51.27
74633;BME280;63139;52.018;8.552;2023-04-10T08:12:45;100985.47;;;12.32;52.48
74633;BME280;63139;52.018;8.552;2023-04-10T08:15:13;100976.84;;;12.38;51.98
74633;BME280;63139;52.018;8.552;2023-04-10T08:17:43;100973.19;;;12.47;52.09
74633;BME280;63139;52.018;8.552;2023-04-10T08:20:11;100957.91;;;12.57;51.46
74633;BME280;63139;52.018;8.552;2023-04-10T08:22:39;100960.19;;;12.68;50.74
74633;BME280;63139;52.018;8.552;2023-04-10T08:25:08;100964.66;;;12.76;50.11
74633;BME280;63139;52.018;8.552;2023-04-10T08:27:36;100952.69;;;12.88;50.20
74633;BME280;63139;52.018;8.552;2023-04-10T08:30:04;100956.78;;;12.99;49.27
74633;BME280;63139;52.018;8.552;2023-04-10T08:32:32;100961.06;;;13.08;50.41
74633;BME280;63139;52.018;8.552;2023-04-10T08:35:02;100961.25;;;13.14;48.19
74633;BME280;63139;52.018;8.552;2023-04-10T08:37:29;100962.03;;;13.23;49.93
74633;BME280;63139;52.018;8.552;2023-04-10T08:39:57;100945.88;;;13.33;48.98
74633;BME280;63139;52.018;8.552;2023-04-10T08:42:25;100951.78;;;13.43;49.56
74633;BME280;63139;52.018;8.552;2023-04-10T08:44:53;100950.75;;;13.52;49.06
74633;BME280;63139;52.018;8.552;2023-04-10T08:47:22;100945.50;;;13.67;48.56
74633;BME280;63139;52.018;8.552;2023-04-10T08:49:56;100948.50;;;13.86;48.58
74633;BME280;63139;52.018;8.552;2023-04-10T08:52:28;100937.56;;;14.04;47.02
74633;BME280;63139;52.018;8.552;2023-04-10T08:54:58;100922.78;;;14.16;45.92
74633;BME280;63139;52.018;8.552;2023-04-10T08:57:27;100930.19;;;14.29;45.67
74633;BME280;63139;52.018;8.552;2023-04-10T08:59:57;100922.44;;;14.42;46.49
74633;BME280;63139;52.018;8.552;2023-04-10T09:02:37;100918.69;;;14.51;46.34
74633;BME280;63139;52.018;8.552;2023-04-10T09:05:10;100922.06;;;14.60;46.85
74633;BME280;63139;52.018;8.552;2023-04-10T09:07:39;100912.34;;;14.67;46.19
74633;BME280;63139;52.018;8.552;2023-04-10T09:10:08;100916.28;;;14.71;46.45
74633;BME280;63139;52.018;8.552;2023-04-10T09:12:43;100910.47;;;14.67;45.70
74633;BME280;63139;52.018;8.552;2023-04-10T09:15:12;100910.47;;;14.67;47.08
74633;BME280;63139;52.018;8.552;2023-04-10T09:17:54;100906.09;;;14.74;46.53
74633;BME280;63139;52.018;8.552;2023-04-10T09:20:24;100895.78;;;14.71;45.71
74633;BME280;63139;52.018;8.552;2023-04-10T09:22:53;100904.44;;;14.73;46.40
74633;BME280;63139;52.018;8.552;2023-04-10T09:25:29;100879.16;;;14.69;45.49
74633;BME280;63139;52.018;8.552;2023-04-10T09:28:02;100882.91;;;14.75;46.33
74633;BME280;63139;52.018;8.552;2023-04-10T09:30:34;100874.53;;;14.78;45.91
74633;BME280;63139;52.018;8.552;2023-04-10T09:33:02;100868.66;;;14.83;46.92
74633;BME280;63139;52.018;8.552;2023-04-10T09:35:47;100869.47;;;14.83;47.00
74633;BME280;63139;52.018;8.552;2023-04-10T09:38:17;100862.22;;;14.77;45.23
74633;BME280;63139;52.018;8.552;2023-04-10T09:40:46;100862.22;;;14.77;46.78
74633;BME280;63139;52.018;8.552;2023-04-10T09:43:22;100848.72;;;14.79;45.38
74633;BME280;63139;52.018;8.552;2023-04-10T09:45:51;100835.75;;;14.75;44.33
74633;BME280;63139;52.018;8.552;2023-04-10T09:48:20;100855.81;;;14.71;44.14
74633;BME280;63139;52.018;8.552;2023-04-10T09:50:49;100839.06;;;14.77;45.11
74633;BME280;63139;52.018;8.552;2023-04-10T09:53:19;100838.88;;;14.79;45.05
74633;BME280;63139;52.018;8.552;2023-04-10T09:55:48;100826.63;;;14.85;44.78
74633;BME280;63139;52.018;8.552;2023-04-10T09:58:16;100825.63;;;14.86;44.30
74633;BME280;63139;52.018;8.552;2023-04-10T10:00:45;100811.28;;;14.87;43.27
74633;BME280;63139;52.018;8.552;2023-04-10T10:03:14;100825.28;;;14.89;42.80
74633;BME280;63139;52.018;8.552;2023-04-10T10:05:44;100814.03;;;14.93;44.60
74633;BME280;63139;52.018;8.552;2023-04-10T10:08:13;100809.13;;;14.97;45.00
74633;BME280;63139;52.018;8.552;2023-04-10T10:10:46;100799.75;;;15.01;43.33
74633;BME280;63139;52.018;8.552;2023-04-10T10:13:16;100798.63;;;15.10;42.98
74633;BME280;63139;52.018;8.552;2023-04-10T10:15:52;100794.00;;;15.19;42.83
74633;BME280;63139;52.018;8.552;2023-04-10T10:18:27;100786.47;;;15.29;43.02
74633;BME280;63139;52.018;8.552;2023-04-10T10:20:59;100774.47;;;15.39;43.43
74633;BME280;63139;52.018;8.552;2023-04-10T10:23:28;100758.06;;;15.42;40.78
74633;BME280;63139;52.018;8.552;2023-04-10T10:25:59;100779.38;;;15.57;40.26
74633;BME280;63139;52.018;8.552;2023-04-10T10:28:30;100761.91;;;15.82;41.60
74633;BME280;63139;52.018;8.552;2023-04-10T10:30:59;100771.31;;;16.06;39.72
74633;BME280;63139;52.018;8.552;2023-04-10T10:33:28;100748.81;;;16.28;39.30
74633;BME280;63139;52.018;8.552;2023-04-10T10:35:58;100762.66;;;16.45;38.57
74633;BME280;63139;52.018;8.552;2023-04-10T10:38:27;100756.97;;;16.61;38.60
74633;BME280;63139;52.018;8.552;2023-04-10T10:41:00;100753.34;;;16.82;38.29
74633;BME280;63139;52.018;8.552;2023-04-10T10:43:46;100747.81;;;16.90;36.63
74633;BME280;63139;52.018;8.552;2023-04-10T10:46:23;100750.09;;;17.06;37.84
74633;BME280;63139;52.018;8.552;2023-04-10T10:48:54;100755.06;;;17.23;38.43
74633;BME280;63139;52.018;8.552;2023-04-10T10:51:22;100746.44;;;17.34;38.55
74633;BME280;63139;52.018;8.552;2023-04-10T10:53:50;100739.63;;;17.44;37.81
74633;BME280;63139;52.018;8.552;2023-04-10T10:56:35;100729.72;;;17.58;35.83
74633;BME280;63139;52.018;8.552;2023-04-10T10:59:03;100725.44;;;17.77;37.73
74633;BME280;63139;52.018;8.552;2023-04-10T11:01:31;100731.97;;;17.88;35.73
74633;BME280;63139;52.018;8.552;2023-04-10T11:03:59;100731.34;;;17.99;36.70
74633;BME280;63139;52.018;8.552;2023-04-10T11:06:50;100720.19;;;18.15;34.36
74633;BME280;63139;52.018;8.552;2023-04-10T11:09:43;100701.22;;;18.10;33.34
74633;BME280;63139;52.018;8.552;2023-04-10T11:12:14;100713.53;;;18.24;35.77
74633;BME280;63139;52.018;8.552;2023-04-10T11:14:42;100705.44;;;18.37;35.76
74633;BME280;63139;52.018;8.552;2023-04-10T11:17:11;100693.44;;;18.40;34.93
74633;BME280;63139;52.018;8.552;2023-04-10T11:19:59;100687.84;;;18.48;33.41
74633;BME280;63139;52.018;8.552;2023-04-10T11:22:27;100681.41;;;18.55;33.33
74633;BME280;63139;52.018;8.552;2023-04-10T11:24:59;100691.31;;;18.61;34.63
74633;BME280;63139;52.018;8.552;2023-04-10T11:27:40;100677.34;;;18.84;33.22
74633;BME280;63139;52.018;8.552;2023-04-10T11:30:30;100669.78;;;18.99;32.85
74633;BME280;63139;52.018;8.552;2023-04-10T11:32:59;100661.88;;;19.11;32.75
74633;BME280;63139;52.018;8.552;2023-04-10T11:35:27;100661.63;;;19.37;34.41
74633;BME280;63139;52.018;8.552;2023-04-10T11:38:13;100662.47;;;19.56;32.44
74633;BME280;63139;52.018;8.552;2023-04-10T11:40:55;100647.72;;;19.47;31.63
74633;BME280;63139;52.018;8.552;2023-04-10T11:43:25;100647.34;;;19.62;33.04
74633;BME280;63139;52.018;8.552;2023-04-10T11:46:04;100644.31;;;19.76;32.08
74633;BME280;63139;52.018;8.552;2023-04-10T11:48:33;100644.34;;;19.88;33.51
74633;BME280;63139;52.018;8.552;2023-04-10T11:51:09;100643.84;;;19.98;33.12
74633;BME280;63139;52.018;8.552;2023-04-10T11:53:37;100640.16;;;20.10;34.23
74633;BME280;63139;52.018;8.552;2023-04-10T11:56:14;100631.78;;;20.19;31.96
74633;BME280;63139;52.018;8.552;2023-04-10T11:58:43;100628.41;;;20.23;32.77
74633;BME280;63139;52.018;8.552;2023-04-10T12:01:11;100615.03;;;20.16;32.77
74633;BME280;63139;52.018;8.552;2023-04-10T12:03:42;100606.66;;;19.95;31.70
74633;BME280;63139;52.018;8.552;2023-04-10T12:06:11;100608.72;;;20.11;33.14
74633;BME280;63139;52.018;8.552;2023-04-10T12:08:40;100603.13;;;20.12;32.85
74633;BME280;63139;52.018;8.552;2023-04-10T12:11:10;100593.72;;;20.03;32.44
74633;BME280;63139;52.018;8.552;2023-04-10T12:13:38;100597.31;;;19.97;32.77
74633;BME280;63139;52.018;8.552;2023-04-10T12:16:09;100580.03;;;19.93;31.73
74633;BME280;63139;52.018;8.552;2023-04-10T12:18:37;100583.00;;;19.85;32.88
74633;BME280;63139;52.018;8.552;2023-04-10T12:21:06;100579.13;;;19.81;32.65
74633;BME280;63139;52.018;8.552;2023-04-10T12:23:36;100585.91;;;19.84;32.25
74633;BME280;63139;52.018;8.552;2023-04-10T12:26:10;100581.69;;;19.76;32.41
74633;BME280;63139;52.018;8.552;2023-04-10T12:28:40;100569.06;;;19.76;33.03
74633;BME280;63139;52.018;8.552;2023-04-10T12:31:09;100576.00;;;19.66;31.82
74633;BME280;63139;52.018;8.552;2023-04-10T12:33:38;100573.31;;;19.66;31.92
74633;BME280;63139;52.018;8.552;2023-04-10T12:36:19;100562.66;;;19.59;31.00
74633;BME280;63139;52.018;8.552;2023-04-10T12:38:46;100557.97;;;19.55;32.23
74633;BME280;63139;52.018;8.552;2023-04-10T12:41:20;100550.72;;;19.55;31.60
74633;BME280;63139;52.018;8.552;2023-04-10T12:43:50;100544.06;;;19.58;32.17
74633;BME280;63139;52.018;8.552;2023-04-10T12:46:24;100529.38;;;19.60;30.94
74633;BME280;63139;52.018;8.552;2023-04-10T12:48:52;100535.91;;;19.64;31.86
74633;BME280;63139;52.018;8.552;2023-04-10T12:51:40;100527.72;;;19.77;30.02
74633;BME280;63139;52.018;8.552;2023-04-10T12:54:08;100531.47;;;19.88;31.67
74633;BME280;63139;52.018;8.552;2023-04-10T12:56:40;100526.63;;;19.78;29.21
74633;BME280;63139;52.018;8.552;2023-04-10T12:59:08;100506.53;;;19.69;30.25
74633;BME280;63139;52.018;8.552;2023-04-10T13:01:38;100496.94;;;19.73;30.15
74633;BME280;63139;52.018;8.552;2023-04-10T13:04:06;100488.66;;;19.75;30.52
74633;BME280;63139;52.018;8.552;2023-04-10T13:06:41;100483.38;;;19.68;29.54
74633;BME280;63139;52.018;8.552;2023-04-10T13:09:09;100484.81;;;19.71;31.07
74633;BME280;63139;52.018;8.552;2023-04-10T13:11:37;100494.38;;;19.78;31.36
74633;BME280;63139;52.018;8.552;2023-04-10T13:14:05;100487.97;;;19.80;29.71
74633;BME280;63139;52.018;8.552;2023-04-10T13:16:33;100480.16;;;19.78;30.21
74633;BME280;63139;52.018;8.552;2023-04-10T13:19:02;100474.19;;;19.76;29.97
74633;BME280;63139;52.018;8.552;2023-04-10T13:21:30;100454.38;;;19.59;29.66
74633;BME280;63139;52.018;8.552;2023-04-10T13:23:58;100440.28;;;19.63;30.60